sensor_id;sensor_type;location;lat;lon;timestamp;P1;durP1;ratioP1;P2;durP2;ratioP2
38591;SDS011;24356;48.460;11.450;2022-12-18T00:00:46;100.68;;;30.20;;
38591;SDS011;24356;48.460;11.450;2022-12-18T00:03:12;99.45;;;31.85;;
38591;SDS011;24356;48.460;11.450;2022-12-18T00:05:46;95.18;;;30.95;;
38591;SDS011;24356;48.460;11.450;2022-12-18T00:08:12;107.13;;;32.47;;
38591;SDS011;24356;48.460;11.450;2022-12-18T00:10:38;97.20;;;30.92;;
38591;SDS011;24356;48.460;11.450;2022-12-18T00:13:04;93.57;;;28.33;;
38591;SDS011;24356;48.460;11.450;2022-12-18T00:15:35;102.10;;;30.77;;
38591;SDS011;24356;48.460;11.450;2022-12-18T00:18:03;91.28;;;29.00;;
38591;SDS011;24356;48.460;11.450;2022-12-18T00:20:29;95.20;;;28.88;;
38591;SDS011;24356;48.460;11.450;2022-12-18T00:22:55;95.63;;;28.77;;
38591;SDS011;24356;48.460;11.450;2022-12-18T00:25:20;93.47;;;29.35;;
38591;SDS011;24356;48.460;11.450;2022-12-18T00:27:47;93.25;;;27.95;;
38591;SDS011;24356;48.460;11.450;2022-12-18T00:30:13;104.75;;;30.00;;
38591;SDS011;24356;48.460;11.450;2022-12-18T00:32:39;98.25;;;28.13;;
38591;SDS011;24356;48.460;11.450;2022-12-18T00:35:05;87.63;;;27.75;;
38591;SDS011;24356;48.460;11.450;2022-12-18T00:37:33;94.57;;;29.15;;
38591;SDS011;24356;48.460;11.450;2022-12-18T00:40:00;91.38;;;28.23;;
38591;SDS011;24356;48.460;11.450;2022-12-18T00:42:25;91.20;;;28.10;;
38591;SDS011;24356;48.460;11.450;2022-12-18T00:45:09;93.80;;;28.40;;
38591;SDS011;24356;48.460;11.450;2022-12-18T00:47:35;87.38;;;26.88;;
38591;SDS011;24356;48.460;11.450;2022-12-18T00:50:01;103.82;;;29.85;;
38591;SDS011;24356;48.460;11.450;2022-12-18T00:52:27;99.10;;;29.05;;
38591;SDS011;24356;48.460;11.450;2022-12-18T00:54:53;86.40;;;27.05;;
38591;SDS011;24356;48.460;11.450;2022-12-18T00:57:18;99.43;;;28.90;;
38591;SDS011;24356;48.460;11.450;2022-12-18T00:59:45;85.72;;;27.23;;
38591;SDS011;24356;48.460;11.450;2022-12-18T01:02:12;99.18;;;29.00;;
38591;SDS011;24356;48.460;11.450;2022-12-18T01:04:38;94.93;;;28.52;;
38591;SDS011;24356;48.460;11.450;2022-12-18T01:07:04;96.47;;;30.08;;
38591;SDS011;24356;48.460;11.450;2022-12-18T01:09:30;97.15;;;29.30;;
38591;SDS011;24356;48.460;11.450;2022-12-18T01:11:55;86.80;;;28.02;;
38591;SDS011;24356;48.460;11.450;2022-12-18T01:14:21;99.30;;;31.10;;
38591;SDS011;24356;48.460;11.450;2022-12-18T01:16:47;101.90;;;31.15;;
38591;SDS011;24356;48.460;11.450;2022-12-18T01:19:12;90.93;;;28.85;;
38591;SDS011;24356;48.460;11.450;2022-12-18T01:21:38;96.28;;;29.58;;
38591;SDS011;24356;48.460;11.450;2022-12-18T01:24:04;97.95;;;28.85;;
38591;SDS011;24356;48.460;11.450;2022-12-18T01:26:30;98.47;;;30.25;;
38591;SDS011;24356;48.460;11.450;2022-12-18T01:28:57;91.82;;;28.90;;
38591;SDS011;24356;48.460;11.450;2022-12-18T01:31:25;101.75;;;30.60;;
38591;SDS011;24356;48.460;11.450;2022-12-18T01:33:52;95.15;;;28.50;;
38591;SDS011;24356;48.460;11.450;2022-12-18T01:36:22;92.45;;;28.48;;
38591;SDS011;24356;48.460;11.450;2022-12-18T01:38:50;108.82;;;28.67;;
38591;SDS011;24356;48.460;11.450;2022-12-18T01:41:17;96.18;;;29.40;;
38591;SDS011;24356;48.460;11.450;2022-12-18T01:43:54;94.05;;;27.35;;
38591;SDS011;24356;48.460;11.450;2022-12-18T01:46:22;94.03;;;27.58;;
38591;SDS011;24356;48.460;11.450;2022-12-18T01:48:51;102.43;;;30.25;;
38591;SDS011;24356;48.460;11.450;2022-12-18T01:51:22;90.72;;;28.05;;
38591;SDS011;24356;48.460;11.450;2022-12-18T01:53:48;85.63;;;25.80;;
38591;SDS011;24356;48.460;11.450;2022-12-18T01:56:15;89.90;;;28.30;;
38591;SDS011;24356;48.460;11.450;2022-12-18T01:58:53;95.35;;;28.13;;
38591;SDS011;24356;48.460;11.450;2022-12-18T02:01:28;79.90;;;25.05;;
38591;SDS011;24356;48.460;11.450;2022-12-18T02:03:55;87.72;;;26.38;;
38591;SDS011;24356;48.460;11.450;2022-12-18T02:06:27;97.85;;;27.20;;
38591;SDS011;24356;48.460;11.450;2022-12-18T02:09:13;98.88;;;27.60;;
38591;SDS011;24356;48.460;11.450;2022-12-18T02:14:32;88.40;;;26.35;;
38591;SDS011;24356;48.460;11.450;2022-12-18T02:17:06;93.22;;;27.42;;
38591;SDS011;24356;48.460;11.450;2022-12-18T02:19:44;92.10;;;27.08;;
38591;SDS011;24356;48.460;11.450;2022-12-18T02:23:00;86.00;;;26.27;;
38591;SDS011;24356;48.460;11.450;2022-12-18T02:25:10;86.97;;;26.45;;
38591;SDS011;24356;48.460;11.450;2022-12-18T02:27:43;81.43;;;25.13;;
38591;SDS011;24356;48.460;11.450;2022-12-18T02:30:11;82.30;;;24.95;;
38591;SDS011;24356;48.460;11.450;2022-12-18T02:32:39;92.95;;;27.45;;
38591;SDS011;24356;48.460;11.450;2022-12-18T02:35:09;87.93;;;26.60;;
38591;SDS011;24356;48.460;11.450;2022-12-18T02:37:39;89.10;;;26.10;;
38591;SDS011;24356;48.460;11.450;2022-12-18T02:40:07;99.90;;;28.02;;
38591;SDS011;24356;48.460;11.450;2022-12-18T02:42:34;84.47;;;25.77;;
38591;SDS011;24356;48.460;11.450;2022-12-18T02:45:00;98.55;;;28.13;;
38591;SDS011;24356;48.460;11.450;2022-12-18T02:47:29;92.13;;;27.38;;
38591;SDS011;24356;48.460;11.450;2022-12-18T02:52:42;100.68;;;30.50;;
38591;SDS011;24356;48.460;11.450;2022-12-18T02:55:33;96.15;;;28.63;;
38591;SDS011;24356;48.460;11.450;2022-12-18T03:01:11;90.63;;;28.83;;
38591;SDS011;24356;48.460;11.450;2022-12-18T03:03:53;110.20;;;29.13;;
38591;SDS011;24356;48.460;11.450;2022-12-18T03:06:37;88.15;;;27.67;;
38591;SDS011;24356;48.460;11.450;2022-12-18T03:09:07;76.82;;;24.13;;
38591;SDS011;24356;48.460;11.450;2022-12-18T03:11:41;85.60;;;26.80;;
38591;SDS011;24356;48.460;11.450;2022-12-18T03:14:29;90.90;;;24.08;;
38591;SDS011;24356;48.460;11.450;2022-12-18T03:16:57;89.38;;;28.08;;
38591;SDS011;24356;48.460;11.450;2022-12-18T03:19:27;90.32;;;27.08;;
38591;SDS011;24356;48.460;11.450;2022-12-18T03:21:57;95.50;;;26.40;;
38591;SDS011;24356;48.460;11.450;2022-12-18T03:24:26;90.47;;;26.80;;
38591;SDS011;24356;48.460;11.450;2022-12-18T03:26:55;91.53;;;26.77;;
38591;SDS011;24356;48.460;11.450;2022-12-18T03:29:47;97.25;;;27.42;;
38591;SDS011;24356;48.460;11.450;2022-12-18T03:32:21;86.45;;;26.73;;
38591;SDS011;24356;48.460;11.450;2022-12-18T03:34:53;80.05;;;25.73;;
38591;SDS011;24356;48.460;11.450;2022-12-18T03:37:22;89.80;;;25.90;;
38591;SDS011;24356;48.460;11.450;2022-12-18T03:39:49;93.05;;;28.50;;
38591;SDS011;24356;48.460;11.450;2022-12-18T03:45:29;90.53;;;26.75;;
38591;SDS011;24356;48.460;11.450;2022-12-18T03:48:12;93.10;;;26.33;;
38591;SDS011;24356;48.460;11.450;2022-12-18T03:50:45;90.25;;;24.77;;
38591;SDS011;24356;48.460;11.450;2022-12-18T03:53:35;96.55;;;27.35;;
38591;SDS011;24356;48.460;11.450;2022-12-18T03:55:58;84.95;;;25.58;;
38591;SDS011;24356;48.460;11.450;2022-12-18T03:58:26;100.82;;;28.52;;
38591;SDS011;24356;48.460;11.450;2022-12-18T04:00:55;85.35;;;26.27;;
38591;SDS011;24356;48.460;11.450;2022-12-18T04:03:23;85.82;;;26.10;;
38591;SDS011;24356;48.460;11.450;2022-12-18T04:05:50;89.78;;;26.30;;
38591;SDS011;24356;48.460;11.450;2022-12-18T04:08:17;96.82;;;28.23;;
38591;SDS011;24356;48.460;11.450;2022-12-18T04:10:45;89.43;;;27.48;;
38591;SDS011;24356;48.460;11.450;2022-12-18T04:13:11;95.13;;;27.75;;
38591;SDS011;24356;48.460;11.450;2022-12-18T04:15:37;94.93;;;27.75;;
38591;SDS011;24356;48.460;11.450;2022-12-18T04:18:03;94.85;;;26.83;;
38591;SDS011;24356;48.460;11.450;2022-12-18T04:20:29;93.85;;;28.00;;
38591;SDS011;24356;48.460;11.450;2022-12-18T04:22:55;89.15;;;27.00;;
38591;SDS011;24356;48.460;11.450;2022-12-18T04:25:20;84.50;;;26.23;;
38591;SDS011;24356;48.460;11.450;2022-12-18T04:27:46;92.88;;;27.80;;
38591;SDS011;24356;48.460;11.450;2022-12-18T04:30:11;84.13;;;26.70;;
38591;SDS011;24356;48.460;11.450;2022-12-18T04:32:37;80.97;;;27.17;;
38591;SDS011;24356;48.460;11.450;2022-12-18T04:35:03;84.28;;;25.50;;
38591;SDS011;24356;48.460;11.450;2022-12-18T04:37:31;87.22;;;27.13;;
38591;SDS011;24356;48.460;11.450;2022-12-18T04:39:57;91.70;;;26.55;;
38591;SDS011;24356;48.460;11.450;2022-12-18T04:42:22;87.82;;;25.90;;
38591;SDS011;24356;48.460;11.450;2022-12-18T04:44:48;88.05;;;26.70;;
38591;SDS011;24356;48.460;11.450;2022-12-18T04:47:14;90.47;;;27.00;;
38591;SDS011;24356;48.460;11.450;2022-12-18T04:49:39;87.75;;;27.13;;
38591;SDS011;24356;48.460;11.450;2022-12-18T04:52:06;91.50;;;27.40;;
38591;SDS011;24356;48.460;11.450;2022-12-18T04:54:31;77.25;;;26.35;;
38591;SDS011;24356;48.460;11.450;2022-12-18T04:56:57;87.00;;;25.30;;
38591;SDS011;24356;48.460;11.450;2022-12-18T04:59:23;77.68;;;24.73;;
38591;SDS011;24356;48.460;11.450;2022-12-18T05:01:48;88.63;;;27.05;;
38591;SDS011;24356;48.460;11.450;2022-12-18T05:04:14;84.30;;;25.65;;
38591;SDS011;24356;48.460;11.450;2022-12-18T05:06:39;81.93;;;26.17;;
38591;SDS011;24356;48.460;11.450;2022-12-18T05:09:06;77.93;;;25.00;;
38591;SDS011;24356;48.460;11.450;2022-12-18T05:11:31;74.85;;;23.80;;
38591;SDS011;24356;48.460;11.450;2022-12-18T05:13:57;67.32;;;22.52;;
38591;SDS011;24356;48.460;11.450;2022-12-18T05:16:23;68.97;;;22.67;;
38591;SDS011;24356;48.460;11.450;2022-12-18T05:18:49;61.92;;;21.85;;
38591;SDS011;24356;48.460;11.450;2022-12-18T05:21:15;63.03;;;22.70;;
38591;SDS011;24356;48.460;11.450;2022-12-18T05:23:41;58.53;;;20.17;;
38591;SDS011;24356;48.460;11.450;2022-12-18T05:26:07;63.33;;;21.75;;
38591;SDS011;24356;48.460;11.450;2022-12-18T05:28:34;51.97;;;19.35;;
38591;SDS011;24356;48.460;11.450;2022-12-18T05:31:01;65.47;;;19.95;;
38591;SDS011;24356;48.460;11.450;2022-12-18T05:33:31;64.47;;;21.40;;
38591;SDS011;24356;48.460;11.450;2022-12-18T05:36:00;63.42;;;20.30;;
38591;SDS011;24356;48.460;11.450;2022-12-18T05:38:27;55.95;;;19.55;;
38591;SDS011;24356;48.460;11.450;2022-12-18T05:40:54;54.38;;;19.40;;
38591;SDS011;24356;48.460;11.450;2022-12-18T05:43:21;64.75;;;21.35;;
38591;SDS011;24356;48.460;11.450;2022-12-18T05:45:48;57.72;;;20.20;;
38591;SDS011;24356;48.460;11.450;2022-12-18T05:48:14;56.13;;;20.48;;
38591;SDS011;24356;48.460;11.450;2022-12-18T05:50:41;67.80;;;22.17;;
38591;SDS011;24356;48.460;11.450;2022-12-18T05:53:10;62.33;;;21.48;;
38591;SDS011;24356;48.460;11.450;2022-12-18T05:55:37;62.45;;;21.15;;
38591;SDS011;24356;48.460;11.450;2022-12-18T05:58:04;65.03;;;21.60;;
38591;SDS011;24356;48.460;11.450;2022-12-18T06:00:32;64.15;;;21.33;;
38591;SDS011;24356;48.460;11.450;2022-12-18T06:02:59;64.38;;;21.17;;
38591;SDS011;24356;48.460;11.450;2022-12-18T06:05:25;63.22;;;20.85;;
38591;SDS011;24356;48.460;11.450;2022-12-18T06:07:51;59.03;;;20.40;;
38591;SDS011;24356;48.460;11.450;2022-12-18T06:10:16;72.43;;;23.42;;
38591;SDS011;24356;48.460;11.450;2022-12-18T06:12:42;65.00;;;20.88;;
38591;SDS011;24356;48.460;11.450;2022-12-18T06:15:08;68.82;;;21.02;;
38591;SDS011;24356;48.460;11.450;2022-12-18T06:17:35;66.55;;;21.20;;
38591;SDS011;24356;48.460;11.450;2022-12-18T06:20:00;63.92;;;20.02;;
38591;SDS011;24356;48.460;11.450;2022-12-18T06:22:26;61.03;;;20.33;;
38591;SDS011;24356;48.460;11.450;2022-12-18T06:24:52;56.38;;;19.27;;
38591;SDS011;24356;48.460;11.450;2022-12-18T06:27:18;54.67;;;18.75;;
38591;SDS011;24356;48.460;11.450;2022-12-18T06:29:44;57.22;;;19.23;;
38591;SDS011;24356;48.460;11.450;2022-12-18T06:32:10;53.80;;;18.70;;
38591;SDS011;24356;48.460;11.450;2022-12-18T06:34:39;57.63;;;20.17;;
38591;SDS011;24356;48.460;11.450;2022-12-18T06:37:04;60.60;;;20.90;;
38591;SDS011;24356;48.460;11.450;2022-12-18T06:39:30;67.65;;;21.13;;
38591;SDS011;24356;48.460;11.450;2022-12-18T06:41:55;68.97;;;22.27;;
38591;SDS011;24356;48.460;11.450;2022-12-18T06:44:21;67.25;;;21.65;;
38591;SDS011;24356;48.460;11.450;2022-12-18T06:46:47;60.75;;;19.10;;
38591;SDS011;24356;48.460;11.450;2022-12-18T06:49:14;64.65;;;20.98;;
38591;SDS011;24356;48.460;11.450;2022-12-18T06:51:41;62.88;;;20.30;;
38591;SDS011;24356;48.460;11.450;2022-12-18T06:54:06;65.07;;;21.73;;
38591;SDS011;24356;48.460;11.450;2022-12-18T06:56:32;66.47;;;20.52;;
38591;SDS011;24356;48.460;11.450;2022-12-18T06:58:57;67.15;;;21.42;;
38591;SDS011;24356;48.460;11.450;2022-12-18T07:01:23;57.55;;;19.73;;
38591;SDS011;24356;48.460;11.450;2022-12-18T07:03:52;61.90;;;19.23;;
38591;SDS011;24356;48.460;11.450;2022-12-18T07:06:19;53.45;;;18.77;;
38591;SDS011;24356;48.460;11.450;2022-12-18T07:08:47;58.25;;;18.83;;
38591;SDS011;24356;48.460;11.450;2022-12-18T07:11:13;59.88;;;19.48;;
38591;SDS011;24356;48.460;11.450;2022-12-18T07:13:39;65.15;;;19.63;;
38591;SDS011;24356;48.460;11.450;2022-12-18T07:16:10;60.88;;;19.80;;
38591;SDS011;24356;48.460;11.450;2022-12-18T07:18:37;56.13;;;19.13;;
38591;SDS011;24356;48.460;11.450;2022-12-18T07:21:06;62.35;;;21.58;;
38591;SDS011;24356;48.460;11.450;2022-12-18T07:23:36;61.75;;;19.15;;
38591;SDS011;24356;48.460;11.450;2022-12-18T07:26:05;55.88;;;18.25;;
38591;SDS011;24356;48.460;11.450;2022-12-18T07:28:32;66.80;;;22.73;;
38591;SDS011;24356;48.460;11.450;2022-12-18T07:31:03;57.22;;;19.23;;
38591;SDS011;24356;48.460;11.450;2022-12-18T07:35:59;51.33;;;16.73;;
38591;SDS011;24356;48.460;11.450;2022-12-18T07:38:26;51.60;;;17.63;;
38591;SDS011;24356;48.460;11.450;2022-12-18T07:40:51;59.10;;;18.77;;
38591;SDS011;24356;48.460;11.450;2022-12-18T07:43:17;60.28;;;19.13;;
38591;SDS011;24356;48.460;11.450;2022-12-18T07:45:43;56.45;;;18.48;;
38591;SDS011;24356;48.460;11.450;2022-12-18T07:48:09;61.00;;;20.70;;
38591;SDS011;24356;48.460;11.450;2022-12-18T07:50:34;56.63;;;19.13;;
38591;SDS011;24356;48.460;11.450;2022-12-18T07:53:00;63.92;;;19.65;;
38591;SDS011;24356;48.460;11.450;2022-12-18T07:55:30;55.80;;;19.85;;
38591;SDS011;24356;48.460;11.450;2022-12-18T07:57:56;60.72;;;19.55;;
38591;SDS011;24356;48.460;11.450;2022-12-18T08:00:26;57.90;;;18.42;;
38591;SDS011;24356;48.460;11.450;2022-12-18T08:02:52;53.25;;;19.15;;
38591;SDS011;24356;48.460;11.450;2022-12-18T08:05:18;62.13;;;21.13;;
38591;SDS011;24356;48.460;11.450;2022-12-18T08:07:43;59.78;;;19.73;;
38591;SDS011;24356;48.460;11.450;2022-12-18T08:10:09;64.40;;;20.50;;
38591;SDS011;24356;48.460;11.450;2022-12-18T08:12:35;62.33;;;23.00;;
38591;SDS011;24356;48.460;11.450;2022-12-18T08:15:00;57.55;;;20.35;;
38591;SDS011;24356;48.460;11.450;2022-12-18T08:17:26;61.25;;;22.17;;
38591;SDS011;24356;48.460;11.450;2022-12-18T08:19:52;62.60;;;21.60;;
38591;SDS011;24356;48.460;11.450;2022-12-18T08:22:17;59.63;;;21.25;;
38591;SDS011;24356;48.460;11.450;2022-12-18T08:24:43;66.63;;;22.65;;
38591;SDS011;24356;48.460;11.450;2022-12-18T08:27:09;55.72;;;20.05;;
38591;SDS011;24356;48.460;11.450;2022-12-18T08:29:35;52.38;;;19.77;;
38591;SDS011;24356;48.460;11.450;2022-12-18T08:32:00;55.53;;;20.15;;
38591;SDS011;24356;48.460;11.450;2022-12-18T08:34:26;55.38;;;19.00;;
38591;SDS011;24356;48.460;11.450;2022-12-18T08:36:51;53.05;;;18.42;;
38591;SDS011;24356;48.460;11.450;2022-12-18T08:39:17;56.05;;;21.58;;
38591;SDS011;24356;48.460;11.450;2022-12-18T08:41:43;66.85;;;24.85;;
38591;SDS011;24356;48.460;11.450;2022-12-18T08:44:28;63.47;;;21.80;;
38591;SDS011;24356;48.460;11.450;2022-12-18T08:47:03;42.95;;;16.30;;
38591;SDS011;24356;48.460;11.450;2022-12-18T08:49:29;51.80;;;17.98;;
38591;SDS011;24356;48.460;11.450;2022-12-18T08:51:55;58.65;;;22.98;;
38591;SDS011;24356;48.460;11.450;2022-12-18T08:54:24;59.28;;;23.30;;
38591;SDS011;24356;48.460;11.450;2022-12-18T08:56:50;63.25;;;22.40;;
38591;SDS011;24356;48.460;11.450;2022-12-18T08:59:17;65.55;;;23.15;;
38591;SDS011;24356;48.460;11.450;2022-12-18T09:01:44;58.58;;;21.35;;
38591;SDS011;24356;48.460;11.450;2022-12-18T09:04:10;51.45;;;19.15;;
38591;SDS011;24356;48.460;11.450;2022-12-18T09:06:36;60.00;;;20.10;;
38591;SDS011;24356;48.460;11.450;2022-12-18T09:09:02;58.13;;;19.63;;
38591;SDS011;24356;48.460;11.450;2022-12-18T09:11:29;61.38;;;20.80;;
38591;SDS011;24356;48.460;11.450;2022-12-18T09:13:55;61.70;;;19.90;;
38591;SDS011;24356;48.460;11.450;2022-12-18T09:16:22;56.05;;;20.15;;
38591;SDS011;24356;48.460;11.450;2022-12-18T09:18:49;54.78;;;20.80;;
38591;SDS011;24356;48.460;11.450;2022-12-18T09:21:16;64.50;;;23.40;;
38591;SDS011;24356;48.460;11.450;2022-12-18T09:23:43;57.10;;;20.20;;
38591;SDS011;24356;48.460;11.450;2022-12-18T09:26:09;57.67;;;20.90;;
38591;SDS011;24356;48.460;11.450;2022-12-18T09:28:35;52.95;;;18.90;;
38591;SDS011;24356;48.460;11.450;2022-12-18T09:31:05;49.92;;;17.75;;
38591;SDS011;24356;48.460;11.450;2022-12-18T09:33:32;58.00;;;20.48;;
38591;SDS011;24356;48.460;11.450;2022-12-18T09:36:02;61.47;;;21.65;;
38591;SDS011;24356;48.460;11.450;2022-12-18T09:38:30;67.75;;;22.30;;
38591;SDS011;24356;48.460;11.450;2022-12-18T09:40:58;56.05;;;19.77;;
38591;SDS011;24356;48.460;11.450;2022-12-18T09:43:29;54.33;;;19.63;;
38591;SDS011;24356;48.460;11.450;2022-12-18T09:46:11;63.47;;;21.48;;
38591;SDS011;24356;48.460;11.450;2022-12-18T09:48:48;60.33;;;21.50;;
38591;SDS011;24356;48.460;11.450;2022-12-18T09:51:19;63.83;;;21.95;;
38591;SDS011;24356;48.460;11.450;2022-12-18T09:53:58;57.35;;;20.40;;
38591;SDS011;24356;48.460;11.450;2022-12-18T09:56:31;55.10;;;21.25;;
38591;SDS011;24356;48.460;11.450;2022-12-18T09:59:02;56.80;;;20.55;;
38591;SDS011;24356;48.460;11.450;2022-12-18T10:01:29;57.08;;;20.80;;
38591;SDS011;24356;48.460;11.450;2022-12-18T10:03:56;55.13;;;21.35;;
38591;SDS011;24356;48.460;11.450;2022-12-18T10:06:42;57.33;;;21.33;;
38591;SDS011;24356;48.460;11.450;2022-12-18T10:09:36;59.00;;;21.63;;
38591;SDS011;24356;48.460;11.450;2022-12-18T10:26:07;58.85;;;21.70;;
38591;SDS011;24356;48.460;11.450;2022-12-18T10:28:38;54.50;;;19.47;;
38591;SDS011;24356;48.460;11.450;2022-12-18T10:31:05;51.63;;;19.15;;
38591;SDS011;24356;48.460;11.450;2022-12-18T10:33:33;52.38;;;19.70;;
38591;SDS011;24356;48.460;11.450;2022-12-18T10:35:59;50.92;;;19.52;;
38591;SDS011;24356;48.460;11.450;2022-12-18T10:38:29;54.40;;;18.30;;
38591;SDS011;24356;48.460;11.450;2022-12-18T10:41:00;51.85;;;19.45;;
38591;SDS011;24356;48.460;11.450;2022-12-18T10:54:05;49.30;;;16.88;;
38591;SDS011;24356;48.460;11.450;2022-12-18T10:56:37;45.97;;;18.42;;
38591;SDS011;24356;48.460;11.450;2022-12-18T10:59:04;50.97;;;17.08;;
38591;SDS011;24356;48.460;11.450;2022-12-18T11:01:53;48.55;;;18.60;;
38591;SDS011;24356;48.460;11.450;2022-12-18T11:04:29;51.97;;;18.85;;
38591;SDS011;24356;48.460;11.450;2022-12-18T11:07:03;58.20;;;22.20;;
38591;SDS011;24356;48.460;11.450;2022-12-18T11:09:33;63.25;;;22.10;;
38591;SDS011;24356;48.460;11.450;2022-12-18T11:12:02;53.70;;;19.70;;
38591;SDS011;24356;48.460;11.450;2022-12-18T11:14:41;51.22;;;20.88;;
38591;SDS011;24356;48.460;11.450;2022-12-18T11:17:29;51.33;;;19.10;;
38591;SDS011;24356;48.460;11.450;2022-12-18T11:20:00;53.17;;;20.48;;
38591;SDS011;24356;48.460;11.450;2022-12-18T11:22:29;60.88;;;22.85;;
38591;SDS011;24356;48.460;11.450;2022-12-18T11:27:37;50.85;;;18.92;;
38591;SDS011;24356;48.460;11.450;2022-12-18T11:30:08;48.60;;;18.58;;
38591;SDS011;24356;48.460;11.450;2022-12-18T11:35:49;53.47;;;19.70;;
38591;SDS011;24356;48.460;11.450;2022-12-18T11:41:00;50.65;;;19.92;;
38591;SDS011;24356;48.460;11.450;2022-12-18T11:44:09;50.03;;;19.23;;
38591;SDS011;24356;48.460;11.450;2022-12-18T11:46:47;47.85;;;17.85;;
38591;SDS011;24356;48.460;11.450;2022-12-18T11:49:21;54.83;;;20.00;;
38591;SDS011;24356;48.460;11.450;2022-12-18T11:51:54;50.88;;;18.10;;
38591;SDS011;24356;48.460;11.450;2022-12-18T11:54:28;50.08;;;19.77;;
38591;SDS011;24356;48.460;11.450;2022-12-18T12:02:43;52.15;;;20.58;;
38591;SDS011;24356;48.460;11.450;2022-12-18T12:14:09;49.45;;;19.02;;
38591;SDS011;24356;48.460;11.450;2022-12-18T12:16:39;45.95;;;18.50;;
38591;SDS011;24356;48.460;11.450;2022-12-18T12:19:30;47.70;;;19.27;;
38591;SDS011;24356;48.460;11.450;2022-12-18T12:30:48;54.55;;;20.10;;
38591;SDS011;24356;48.460;11.450;2022-12-18T12:36:25;50.63;;;19.65;;
38591;SDS011;24356;48.460;11.450;2022-12-18T12:39:06;52.80;;;21.33;;
38591;SDS011;24356;48.460;11.450;2022-12-18T12:41:36;49.30;;;19.25;;
38591;SDS011;24356;48.460;11.450;2022-12-18T12:44:24;46.53;;;18.40;;
38591;SDS011;24356;48.460;11.450;2022-12-18T12:46:51;46.88;;;19.42;;
38591;SDS011;24356;48.460;11.450;2022-12-18T12:49:22;51.85;;;20.88;;
38591;SDS011;24356;48.460;11.450;2022-12-18T12:51:54;47.35;;;18.75;;
38591;SDS011;24356;48.460;11.450;2022-12-18T12:54:27;46.80;;;20.08;;
38591;SDS011;24356;48.460;11.450;2022-12-18T13:02:22;57.28;;;22.08;;
38591;SDS011;24356;48.460;11.450;2022-12-18T13:07:30;51.78;;;20.65;;
38591;SDS011;24356;48.460;11.450;2022-12-18T13:10:37;51.08;;;20.65;;
38591;SDS011;24356;48.460;11.450;2022-12-18T13:20:44;77.53;;;26.58;;
38591;SDS011;24356;48.460;11.450;2022-12-18T13:25:50;61.58;;;22.88;;
38591;SDS011;24356;48.460;11.450;2022-12-18T13:31:10;56.75;;;20.90;;
38591;SDS011;24356;48.460;11.450;2022-12-18T13:33:46;67.43;;;23.38;;
38591;SDS011;24356;48.460;11.450;2022-12-18T13:36:16;65.47;;;22.95;;
38591;SDS011;24356;48.460;11.450;2022-12-18T13:41:39;62.28;;;21.10;;
38591;SDS011;24356;48.460;11.450;2022-12-18T13:44:10;86.00;;;25.60;;
38591;SDS011;24356;48.460;11.450;2022-12-18T13:46:55;60.35;;;21.35;;
38591;SDS011;24356;48.460;11.450;2022-12-18T13:49:27;81.43;;;26.20;;
38591;SDS011;24356;48.460;11.450;2022-12-18T13:52:18;67.38;;;22.65;;
38591;SDS011;24356;48.460;11.450;2022-12-18T13:54:56;62.95;;;22.38;;
38591;SDS011;24356;48.460;11.450;2022-12-18T13:57:31;69.70;;;24.58;;
38591;SDS011;24356;48.460;11.450;2022-12-18T14:05:21;78.70;;;27.60;;
38591;SDS011;24356;48.460;11.450;2022-12-18T14:07:47;62.88;;;23.05;;
38591;SDS011;24356;48.460;11.450;2022-12-18T14:10:13;55.35;;;23.27;;
38591;SDS011;24356;48.460;11.450;2022-12-18T14:12:44;60.50;;;24.33;;
38591;SDS011;24356;48.460;11.450;2022-12-18T14:15:39;56.90;;;23.90;;
38591;SDS011;24356;48.460;11.450;2022-12-18T14:20:55;52.22;;;20.02;;
38591;SDS011;24356;48.460;11.450;2022-12-18T14:23:31;50.05;;;19.35;;
38591;SDS011;24356;48.460;11.450;2022-12-18T14:25:59;55.28;;;21.40;;
38591;SDS011;24356;48.460;11.450;2022-12-18T14:28:26;52.30;;;21.50;;
38591;SDS011;24356;48.460;11.450;2022-12-18T14:30:52;49.17;;;20.33;;
38591;SDS011;24356;48.460;11.450;2022-12-18T14:33:28;50.05;;;19.65;;
38591;SDS011;24356;48.460;11.450;2022-12-18T14:36:01;44.95;;;18.98;;
38591;SDS011;24356;48.460;11.450;2022-12-18T14:41:05;47.38;;;18.50;;
38591;SDS011;24356;48.460;11.450;2022-12-18T14:43:39;45.50;;;19.13;;
38591;SDS011;24356;48.460;11.450;2022-12-18T14:51:54;45.88;;;17.92;;
38591;SDS011;24356;48.460;11.450;2022-12-18T14:54:25;43.03;;;17.33;;
38591;SDS011;24356;48.460;11.450;2022-12-18T14:56:56;58.58;;;19.65;;
38591;SDS011;24356;48.460;11.450;2022-12-18T14:59:27;47.50;;;18.42;;
38591;SDS011;24356;48.460;11.450;2022-12-18T15:04:36;58.00;;;22.42;;
38591;SDS011;24356;48.460;11.450;2022-12-18T15:07:13;52.47;;;19.88;;
38591;SDS011;24356;48.460;11.450;2022-12-18T15:09:42;47.85;;;19.52;;
38591;SDS011;24356;48.460;11.450;2022-12-18T15:23:14;47.30;;;19.92;;
38591;SDS011;24356;48.460;11.450;2022-12-18T15:25:56;48.47;;;19.63;;
38591;SDS011;24356;48.460;11.450;2022-12-18T15:28:28;54.60;;;21.83;;
38591;SDS011;24356;48.460;11.450;2022-12-18T15:36:32;58.58;;;22.35;;
38591;SDS011;24356;48.460;11.450;2022-12-18T15:39:01;60.15;;;23.35;;
38591;SDS011;24356;48.460;11.450;2022-12-18T15:41:28;61.45;;;24.05;;
38591;SDS011;24356;48.460;11.450;2022-12-18T15:43:58;54.13;;;20.52;;
38591;SDS011;24356;48.460;11.450;2022-12-18T15:46:24;52.95;;;20.52;;
38591;SDS011;24356;48.460;11.450;2022-12-18T15:48:55;61.40;;;23.65;;
38591;SDS011;24356;48.460;11.450;2022-12-18T15:51:29;57.17;;;21.55;;
38591;SDS011;24356;48.460;11.450;2022-12-18T15:54:02;56.20;;;21.65;;
38591;SDS011;24356;48.460;11.450;2022-12-18T15:56:29;61.13;;;22.88;;
38591;SDS011;24356;48.460;11.450;2022-12-18T15:59:15;64.20;;;22.02;;
38591;SDS011;24356;48.460;11.450;2022-12-18T16:01:43;60.33;;;21.88;;
38591;SDS011;24356;48.460;11.450;2022-12-18T16:04:11;57.22;;;20.42;;
38591;SDS011;24356;48.460;11.450;2022-12-18T16:06:38;55.63;;;20.67;;
38591;SDS011;24356;48.460;11.450;2022-12-18T16:09:06;57.15;;;20.38;;
38591;SDS011;24356;48.460;11.450;2022-12-18T16:11:32;55.30;;;20.63;;
38591;SDS011;24356;48.460;11.450;2022-12-18T16:16:42;63.67;;;23.65;;
38591;SDS011;24356;48.460;11.450;2022-12-18T16:19:07;67.88;;;24.08;;
38591;SDS011;24356;48.460;11.450;2022-12-18T16:21:34;65.18;;;22.85;;
38591;SDS011;24356;48.460;11.450;2022-12-18T16:24:00;62.97;;;22.85;;
38591;SDS011;24356;48.460;11.450;2022-12-18T16:26:26;64.88;;;23.48;;
38591;SDS011;24356;48.460;11.450;2022-12-18T16:28:52;59.45;;;23.58;;
38591;SDS011;24356;48.460;11.450;2022-12-18T16:31:18;67.80;;;23.15;;
38591;SDS011;24356;48.460;11.450;2022-12-18T16:33:44;67.22;;;24.63;;
38591;SDS011;24356;48.460;11.450;2022-12-18T16:36:09;59.60;;;22.65;;
38591;SDS011;24356;48.460;11.450;2022-12-18T16:38:35;64.93;;;24.52;;